This is the latest recevied weather packets stored in our database for station/object EA6MI-10. If no packets are shown the sender has not sent any weather packets the latest 1 day(s).
| Time | Temp. | Humidity | Pressure | Rain* | Wind** | Luminosity | Snow |
|---|---|---|---|---|---|---|---|
| 1778106322 | 20.56° C | 60% | 1006.9 hPa | - | - | - | - |
| 1778105422 | 20.56° C | 59% | 1007.1 hPa | - | - | - | - |
| 1778103622 | 20.56° C | 59% | 1007.2 hPa | - | - | - | - |
| 1778102722 | 21.11° C | 59% | 1007.2 hPa | - | - | - | - |
| 1778101822 | 21.11° C | 59% | 1007.3 hPa | - | - | - | - |
| 1778100922 | 21.11° C | 60% | 1007.3 hPa | - | - | - | - |
| 1778100022 | 21.67° C | 59% | 1007.2 hPa | - | - | - | - |
| 1778099121 | 21.67° C | 59% | 1007.1 hPa | - | - | - | - |
| 1778094620 | 22.78° C | 58% | 1006.3 hPa | - | - | - | - |
| 1778093720 | 22.78° C | 59% | 1006.2 hPa | - | - | - | - |
| 1778092820 | 23.33° C | 58% | 1006 hPa | - | - | - | - |
| 1778091920 | 23.33° C | 58% | 1005.9 hPa | - | - | - | - |
| 1778086519 | 23.33° C | 59% | 1005.6 hPa | - | - | - | - |
| 1778085619 | 23.33° C | 59% | 1005.7 hPa | - | - | - | - |
| 1778084719 | 23.33° C | 60% | 1005.6 hPa | - | - | - | - |
| 1778079318 | 22.78° C | 60% | 1005.7 hPa | - | - | - | - |
| 1778078418 | 22.78° C | 60% | 1006 hPa | - | - | - | - |
| 1778073017 | 22.78° C | 61% | 1006.5 hPa | - | - | - | - |
| 1778072117 | 22.78° C | 61% | 1006.2 hPa | - | - | - | - |
| 1778067616 | 21.67° C | 62% | 1006.2 hPa | - | - | - | - |
| 1778066716 | 21.67° C | 63% | 1006.3 hPa | - | - | - | - |
| 1778065816 | 21.67° C | 62% | 1006.3 hPa | - | - | - | - |
| 1778064916 | 21.11° C | 63% | 1006.5 hPa | - | - | - | - |
| 1778060415 | 20° C | 66% | 1006.7 hPa | - | - | - | - |
| 1778059515 | 20° C | 66% | 1006.6 hPa | - | - | - | - |
* Rain since midnight (hover to see other rain measurements)
** Current wind speed in m/s (hover to see current wind gust speed)